createdAt,value
2023-03-20T00:03:50.307Z,0.9
2023-03-20T00:09:44.491Z,0.8
2023-03-20T00:15:22.561Z,0.6
2023-03-20T00:21:14.698Z,0.5
2023-03-20T00:26:53.099Z,0.4
2023-03-20T00:32:45.152Z,0.3
2023-03-20T00:38:22.392Z,0.2
2023-03-20T00:43:59.988Z,0.2
2023-03-20T00:49:37.361Z,0.2
2023-03-20T00:55:15.068Z,0.2
2023-03-20T01:01:07.806Z,0.1
2023-03-20T01:07:00.704Z,0
2023-03-20T01:12:53.339Z,0.1
2023-03-20T01:18:15.636Z,0.1
2023-03-20T01:24:06.878Z,0.1
2023-03-20T01:29:45.009Z,0.1
2023-03-20T01:35:38.015Z,-0.1
2023-03-20T01:41:31.197Z,-0.3
2023-03-20T01:47:23.008Z,-0.4
2023-03-20T01:53:15.805Z,-0.5
2023-03-20T01:58:51.876Z,-0.6
2023-03-20T02:04:44.650Z,-0.7
2023-03-20T02:10:22.104Z,-0.8
2023-03-20T02:21:21.099Z,-1
2023-03-20T02:27:13.511Z,-1.1
2023-03-20T02:33:06.761Z,-1.1
2023-03-20T02:38:45.342Z,-1.2
2023-03-20T02:44:38.854Z,-1.3
2023-03-20T02:50:31.933Z,-1.3
2023-03-20T02:56:09.460Z,-1.3
2023-03-20T03:02:02.260Z,-1.3
2023-03-20T03:07:39.340Z,-1.4
2023-03-20T03:13:00.997Z,-1.4
2023-03-20T03:18:24.176Z,-1.4
2023-03-20T03:24:18.452Z,-1.4
2023-03-20T03:30:02.633Z,-1.4
2023-03-20T03:35:56.366Z,-1.4
2023-03-20T03:41:32.760Z,-1.5
2023-03-20T03:47:10.050Z,-1.5
2023-03-20T03:58:24.247Z,-1.6
2023-03-20T04:04:01.956Z,-1.6
2023-03-20T04:09:56.899Z,-1.6
2023-03-20T04:15:36.931Z,-1.4
2023-03-20T04:21:13.736Z,-1.3
2023-03-20T04:26:51.612Z,-1.3
2023-03-20T04:32:47.592Z,-1.4
2023-03-20T04:38:39.961Z,-1.5
2023-03-20T04:44:18.814Z,-1.5
2023-03-20T04:49:54.956Z,-1.5
2023-03-20T04:55:46.780Z,-1.4
2023-03-20T05:01:24.424Z,-1.3
2023-03-20T05:07:20.452Z,-1.1
2023-03-20T05:13:13.340Z,-0.8
2023-03-20T05:18:51.130Z,-0.5
2023-03-20T05:24:43.245Z,-0.3
2023-03-20T05:30:35.498Z,0.1
2023-03-20T05:36:31.056Z,0.6
2023-03-20T05:42:24.284Z,1.1
2023-03-20T05:48:01.087Z,1.9
2023-03-20T05:53:38.062Z,4
2023-03-20T05:59:34.080Z,7.1
2023-03-20T06:05:26.533Z,9.7
2023-03-20T06:11:19.465Z,12.1
2023-03-20T06:17:14.048Z,14.4
2023-03-20T06:23:07.284Z,16.8
2023-03-20T06:29:00.623Z,19.1
2023-03-20T06:34:53.892Z,21.6
2023-03-20T06:40:45.989Z,23.9
2023-03-20T06:46:38.249Z,26.6
2023-03-20T06:52:29.939Z,28.8
2023-03-20T06:58:21.875Z,31.8
2023-03-20T07:04:14.672Z,34.9
2023-03-20T07:10:08.219Z,36.7
2023-03-20T07:16:18.520Z,38.1
2023-03-20T07:22:12.859Z,41
2023-03-20T07:28:17.951Z,44.6
2023-03-20T07:34:11.095Z,46.6
2023-03-20T07:40:05.274Z,48.5
2023-03-20T07:45:58.417Z,51.7
2023-03-20T07:51:53.051Z,51.3
2023-03-20T07:57:46.646Z,44.9
2023-03-20T08:03:38.824Z,46.6
2023-03-20T08:09:34.000Z,51.6
2023-03-20T08:15:27.800Z,55
2023-03-20T08:21:36.918Z,48.3
2023-03-20T08:27:13.938Z,49.3
2023-03-20T08:33:18.568Z,56.4
2023-03-20T08:39:27.926Z,53.3
2023-03-20T08:45:20.091Z,53.4
2023-03-20T08:51:13.093Z,55.3
2023-03-20T08:57:05.968Z,55.6
2023-03-20T09:03:15.378Z,56.4
2023-03-20T09:14:21.092Z,58.6
2023-03-20T09:19:58.877Z,58.8
2023-03-20T09:25:36.789Z,59
2023-03-20T09:31:29.694Z,59.5
2023-03-20T09:37:10.155Z,60.2
2023-03-20T09:43:11.472Z,60.9
2023-03-20T09:49:20.909Z,61.5
2023-03-20T09:55:27.368Z,57.7
2023-03-20T10:01:20.567Z,59.3
2023-03-20T10:07:00.156Z,61
2023-03-20T10:12:53.242Z,61.4
2023-03-20T10:18:47.328Z,61.4
2023-03-20T10:24:38.342Z,61.7
2023-03-20T10:30:17.752Z,62.8
2023-03-20T10:36:12.022Z,62.9
2023-03-20T10:42:04.431Z,63.3
2023-03-20T10:47:57.720Z,63.9
2023-03-20T10:53:36.287Z,64.5
2023-03-20T10:59:12.565Z,65.2
2023-03-20T11:04:51.350Z,66
2023-03-20T11:10:57.966Z,65.8
2023-03-20T11:16:51.027Z,65.5
2023-03-20T11:22:46.206Z,65
2023-03-20T11:28:41.759Z,64.9
2023-03-20T11:34:47.259Z,65.7
2023-03-20T11:40:52.990Z,66.1
2023-03-20T11:46:45.790Z,66.1
2023-03-20T11:52:38.538Z,66.4
2023-03-20T11:58:35.401Z,66.3
2023-03-20T12:04:29.549Z,65.4
2023-03-20T12:10:22.443Z,65.3
2023-03-20T12:16:15.572Z,65
2023-03-20T12:22:09.107Z,65.1
2023-03-20T12:28:01.942Z,65.1
2023-03-20T12:33:55.327Z,64.6
2023-03-20T12:39:49.337Z,63
2023-03-20T12:45:44.277Z,62.5
2023-03-20T12:51:06.264Z,62.4
2023-03-20T12:57:00.056Z,58.3
2023-03-20T13:02:52.184Z,58.8
2023-03-20T13:08:29.125Z,59.9
2023-03-20T13:14:22.140Z,62.2
2023-03-20T13:20:01.824Z,65.6
2023-03-20T13:25:41.770Z,62.9
2023-03-20T13:31:35.516Z,56.8
2023-03-20T13:37:40.813Z,56.6
2023-03-20T13:43:33.277Z,55.7
2023-03-20T13:49:30.885Z,53.3
2023-03-20T13:55:24.308Z,50.8
2023-03-20T14:01:02.144Z,48.9
2023-03-20T14:06:24.633Z,47.5
2023-03-20T14:11:49.420Z,47.1
2023-03-20T14:17:11.802Z,46.8
2023-03-20T14:22:34.340Z,46.1
2023-03-20T14:28:14.311Z,45.9
2023-03-20T14:33:52.869Z,45.6
2023-03-20T14:39:30.187Z,44.9
2023-03-20T14:45:22.197Z,44.1
2023-03-20T14:51:18.518Z,42.7
2023-03-20T14:57:11.289Z,40.9
2023-03-20T15:03:02.834Z,39.2
2023-03-20T15:08:55.394Z,37.5
2023-03-20T15:14:50.394Z,35.8
2023-03-20T15:20:43.817Z,34.2
2023-03-20T15:26:38.140Z,32.9
2023-03-20T15:32:31.881Z,31.7
2023-03-20T15:38:25.374Z,30.8
2023-03-20T15:44:31.443Z,29.8
2023-03-20T15:50:46.338Z,28.8
2023-03-20T16:01:57.045Z,26.9
2023-03-20T16:07:53.352Z,25.8
2023-03-20T16:13:46.034Z,24.6
2023-03-20T16:19:39.272Z,23.5
2023-03-20T16:25:32.136Z,22.6
2023-03-20T16:31:26.624Z,21.8
2023-03-20T16:37:19.491Z,21
2023-03-20T16:43:12.701Z,20.3
2023-03-20T16:49:05.746Z,19.7
2023-03-20T16:54:58.335Z,19.1
2023-03-20T17:00:36.238Z,18.4
2023-03-20T17:05:57.504Z,17.9
2023-03-20T17:11:35.262Z,17.4
2023-03-20T17:17:28.799Z,17.1
2023-03-20T17:23:22.636Z,16.8
2023-03-20T17:29:15.657Z,16.5
2023-03-20T17:34:54.550Z,16.2
2023-03-20T17:40:31.681Z,16
2023-03-20T17:46:25.348Z,15.8
2023-03-20T17:52:36.567Z,15.5
2023-03-20T17:58:14.386Z,15.3
2023-03-20T18:04:08.694Z,15
2023-03-20T18:10:02.585Z,14.8
2023-03-20T18:15:41.616Z,14.4
2023-03-20T18:21:34.822Z,14.2
2023-03-20T18:27:12.725Z,13.9
2023-03-20T18:32:49.207Z,13.6
2023-03-20T18:37:40.641Z,13.4
2023-03-20T18:43:02.978Z,13.2
2023-03-20T18:48:08.184Z,13
2023-03-20T18:53:31.460Z,12.8
2023-03-20T18:59:10.893Z,12.4
2023-03-20T19:05:04.034Z,12.1
2023-03-20T19:10:41.433Z,11.8
2023-03-20T19:16:05.061Z,11.6
2023-03-20T19:21:58.131Z,11.3
2023-03-20T19:28:05.617Z,11.1
2023-03-20T19:34:02.122Z,10.9
2023-03-20T19:41:19.826Z,10.7
2023-03-20T19:48:26.852Z,10.6
2023-03-20T19:54:23.551Z,10.6
2023-03-20T20:00:57.179Z,10.5
2023-03-20T20:07:26.653Z,10.6
2023-03-20T20:14:30.986Z,10.6
2023-03-20T20:20:29.390Z,10.6
2023-03-20T20:28:11.507Z,10.7
2023-03-20T20:35:30.162Z,10.5
2023-03-20T20:43:10.221Z,10.4
2023-03-20T20:49:19.723Z,10.5
2023-03-20T20:55:36.932Z,10.5
2023-03-20T21:01:46.450Z,10.5
2023-03-20T21:08:10.387Z,10.4
2023-03-20T21:14:27.530Z,10.3
2023-03-20T21:20:02.307Z,10.2
2023-03-20T21:26:36.275Z,10.1
2023-03-20T21:32:55.211Z,10.1
2023-03-20T21:40:28.096Z,10
2023-03-20T22:45:08.857Z,9.1
2023-03-20T22:52:08.189Z,8.9
2023-03-20T22:58:24.730Z,8.9
2023-03-20T23:04:25.222Z,8.8
2023-03-20T23:10:22.039Z,8.8
2023-03-20T23:16:30.881Z,8.7
2023-03-20T23:22:14.396Z,8.6
2023-03-20T23:28:14.038Z,8.6
2023-03-20T23:34:25.652Z,8.6
2023-03-20T23:40:34.330Z,8.6
2023-03-20T23:47:44.632Z,8.5
2023-03-20T23:54:16.427Z,8.6
